Aspatria, United Kingdom

2:37 PM BST on October 21, 2014 (GMT +0100)
Lake District, Cumbria | Change Station
CLOSE
Current Station
Personal Weather Station
Location: Cockermouth,
Elevation: 253 ft
Nearby Weather Stations

Elev 253 ft 54.66 °N, 3.35 °W | Updated 5 minutes ago

Scattered Clouds
Scattered Clouds
50.4 °F
Feels Like 50.4 °F
N
2.0
Wind Variable Wind from SW
Gusts 2.0 mph

Today
High -- | Low -- °F
--% Chance of Precip.
Yesterday
High -- | Low -- °F
Precip. -- in
7:53 AM 6:01 PM
Waning Crescent, 5% visible
Pressure 29.56 in
Visibility 6.2 miles
Clouds Few 1600 ft
Scattered Clouds 2300 ft
Dew Point 41 °F
Humidity 69%
Rainfall 0.72 in
Snow Depth Not available.
UV 1 out of 12
Pollen Not available.
Air Quality Not available.
Flu Activity Not available.
METAR EGNC 211320Z 29020G35KT 260V330 9999 VCSH FEW016 SCT023 09/04 Q1001

More Conditions Fewer Conditions

Pressure 29.56 in
Visibility 6.2 miles
Clouds Few 1600 ft
Scattered Clouds 2300 ft
Dew Point 41 °F
Humidity 69%
Rainfall 0.72 in
Snow Depth Not available.
UV 1 out of 12
Pollen Not available.
Air Quality Not available.
Flu Activity Not available.
METAR EGNC 211320Z 29020G35KT 260V330 9999 VCSH FEW016 SCT023 09/04 Q1001

More Conditions Fewer Conditions

10-Day Weather Forecast

Almanac

Astronomy

Oct. 21, 2014 Rise Set
Actual Time 7:53 AM BST 6:01 PM BST
Civil Twilight 7:16 AM BST 6:37 PM BST
Nautical Twilight 6:34 AM BST 7:19 PM BST
Astronomical Twilight 5:53 AM BST 8:01 PM BST
Moon 5:01 AM BST 5:05 PM BST
Length of Visible Light 11h 21m
Length of Day
10h 07m
Tomorrow will be 4m 17s shorter.
Waning Crescent, 5% of the Moon is Illuminated
Today
Waning Crescent
Oct 23
New
Oct 30
First Quarter
Nov 6
Full
Nov 14
Last Quarter

Yesterday's Extremes

Country Highs Country Lows

Community

WunderPhotos

Upload Photos

1,763,662 photos uploaded!

Nearby

Snow Depth

Not available.

Earthquake Activity

City Distance Mag. Time & Date
No recent earthquake activity has been reported nearby.
Minimum magnitude displayed is 2.5.

Coastal Water Temperatures

Place Temperature
No Stations Reporting

Nearby Weather Stations